sensor_id;sensor_type;location;lat;lon;timestamp;temperature;humidity
12413;DHT22;13877;18.896;-99.222;2023-07-16T00:01:29;33.40;44.90
12413;DHT22;13877;18.896;-99.222;2023-07-16T00:03:56;33.40;45.40
12413;DHT22;13877;18.896;-99.222;2023-07-16T00:06:22;33.60;44.90
12413;DHT22;13877;18.896;-99.222;2023-07-16T00:08:49;33.40;45.50
12413;DHT22;13877;18.896;-99.222;2023-07-16T00:11:15;33.10;45.10
12413;DHT22;13877;18.896;-99.222;2023-07-16T00:13:42;32.70;47.50
12413;DHT22;13877;18.896;-99.222;2023-07-16T00:16:13;32.80;47.10
12413;DHT22;13877;18.896;-99.222;2023-07-16T00:18:41;32.60;46.20
12413;DHT22;13877;18.896;-99.222;2023-07-16T00:21:08;32.50;46.10
12413;DHT22;13877;18.896;-99.222;2023-07-16T00:23:35;32.10;47.30
12413;DHT22;13877;18.896;-99.222;2023-07-16T00:26:01;31.90;47.30
12413;DHT22;13877;18.896;-99.222;2023-07-16T00:28:28;31.50;46.00
12413;DHT22;13877;18.896;-99.222;2023-07-16T00:30:54;31.40;47.40
12413;DHT22;13877;18.896;-99.222;2023-07-16T00:33:21;31.40;46.90
12413;DHT22;13877;18.896;-99.222;2023-07-16T00:35:48;31.30;47.10
12413;DHT22;13877;18.896;-99.222;2023-07-16T00:38:16;31.20;48.20
12413;DHT22;13877;18.896;-99.222;2023-07-16T00:40:43;30.80;47.60
12413;DHT22;13877;18.896;-99.222;2023-07-16T00:43:10;30.30;48.40
12413;DHT22;13877;18.896;-99.222;2023-07-16T00:45:37;30.00;49.60
12413;DHT22;13877;18.896;-99.222;2023-07-16T00:48:04;29.50;49.30
12413;DHT22;13877;18.896;-99.222;2023-07-16T00:50:36;29.00;50.60
12413;DHT22;13877;18.896;-99.222;2023-07-16T00:53:09;28.70;52.20
12413;DHT22;13877;18.896;-99.222;2023-07-16T00:55:36;28.40;53.80
12413;DHT22;13877;18.896;-99.222;2023-07-16T00:58:03;28.00;55.50
12413;DHT22;13877;18.896;-99.222;2023-07-16T01:00:33;27.70;55.50
12413;DHT22;13877;18.896;-99.222;2023-07-16T01:03:01;27.40;55.70
12413;DHT22;13877;18.896;-99.222;2023-07-16T01:05:31;27.20;56.40
12413;DHT22;13877;18.896;-99.222;2023-07-16T01:08:00;27.00;56.40
12413;DHT22;13877;18.896;-99.222;2023-07-16T01:10:28;26.70;57.20
12413;DHT22;13877;18.896;-99.222;2023-07-16T01:12:54;26.60;58.20
12413;DHT22;13877;18.896;-99.222;2023-07-16T01:15:21;26.60;58.80
12413;DHT22;13877;18.896;-99.222;2023-07-16T01:17:47;26.40;59.90
12413;DHT22;13877;18.896;-99.222;2023-07-16T01:20:14;26.30;59.80
12413;DHT22;13877;18.896;-99.222;2023-07-16T01:30:13;26.00;60.50
12413;DHT22;13877;18.896;-99.222;2023-07-16T01:32:41;25.90;60.90
12413;DHT22;13877;18.896;-99.222;2023-07-16T01:35:08;25.90;61.20
12413;DHT22;13877;18.896;-99.222;2023-07-16T01:37:35;25.70;62.50
12413;DHT22;13877;18.896;-99.222;2023-07-16T01:40:02;25.70;62.30
12413;DHT22;13877;18.896;-99.222;2023-07-16T01:42:29;25.70;62.10
12413;DHT22;13877;18.896;-99.222;2023-07-16T01:44:56;25.70;62.40
12413;DHT22;13877;18.896;-99.222;2023-07-16T01:49:51;25.60;64.80
12413;DHT22;13877;18.896;-99.222;2023-07-16T01:52:19;25.50;64.10
12413;DHT22;13877;18.896;-99.222;2023-07-16T01:54:45;25.40;64.10
12413;DHT22;13877;18.896;-99.222;2023-07-16T01:57:12;25.40;64.90
12413;DHT22;13877;18.896;-99.222;2023-07-16T01:59:38;25.40;65.30
12413;DHT22;13877;18.896;-99.222;2023-07-16T02:02:04;25.30;65.60
12413;DHT22;13877;18.896;-99.222;2023-07-16T02:04:31;25.40;64.80
12413;DHT22;13877;18.896;-99.222;2023-07-16T02:06:58;25.40;64.80
12413;DHT22;13877;18.896;-99.222;2023-07-16T02:09:24;25.50;65.10
12413;DHT22;13877;18.896;-99.222;2023-07-16T02:11:51;25.50;64.60
12413;DHT22;13877;18.896;-99.222;2023-07-16T02:14:18;25.40;64.40
12413;DHT22;13877;18.896;-99.222;2023-07-16T02:16:44;25.30;65.80
12413;DHT22;13877;18.896;-99.222;2023-07-16T02:19:10;25.20;64.90
12413;DHT22;13877;18.896;-99.222;2023-07-16T02:21:37;25.10;65.80
12413;DHT22;13877;18.896;-99.222;2023-07-16T02:24:03;25.10;65.90
12413;DHT22;13877;18.896;-99.222;2023-07-16T02:26:30;25.00;66.90
12413;DHT22;13877;18.896;-99.222;2023-07-16T02:28:56;24.90;66.30
12413;DHT22;13877;18.896;-99.222;2023-07-16T02:31:23;24.90;67.10
12413;DHT22;13877;18.896;-99.222;2023-07-16T02:33:50;25.00;67.60
12413;DHT22;13877;18.896;-99.222;2023-07-16T02:36:16;25.00;68.30
12413;DHT22;13877;18.896;-99.222;2023-07-16T02:38:42;24.80;67.70
12413;DHT22;13877;18.896;-99.222;2023-07-16T02:41:09;25.00;68.20
12413;DHT22;13877;18.896;-99.222;2023-07-16T02:43:35;24.90;67.60
12413;DHT22;13877;18.896;-99.222;2023-07-16T02:46:02;24.90;68.00
12413;DHT22;13877;18.896;-99.222;2023-07-16T02:48:28;25.00;68.20
12413;DHT22;13877;18.896;-99.222;2023-07-16T02:50:55;25.00;68.00
12413;DHT22;13877;18.896;-99.222;2023-07-16T02:53:21;25.00;68.10
12413;DHT22;13877;18.896;-99.222;2023-07-16T02:55:47;24.90;68.60
12413;DHT22;13877;18.896;-99.222;2023-07-16T02:58:14;24.90;67.50
12413;DHT22;13877;18.896;-99.222;2023-07-16T03:00:40;24.80;67.70
12413;DHT22;13877;18.896;-99.222;2023-07-16T03:03:07;24.80;68.10
12413;DHT22;13877;18.896;-99.222;2023-07-16T03:05:33;24.80;67.90
12413;DHT22;13877;18.896;-99.222;2023-07-16T03:08:00;24.70;68.00
12413;DHT22;13877;18.896;-99.222;2023-07-16T03:10:26;24.60;68.50
12413;DHT22;13877;18.896;-99.222;2023-07-16T03:12:53;24.60;68.20
12413;DHT22;13877;18.896;-99.222;2023-07-16T03:15:19;24.70;69.30
12413;DHT22;13877;18.896;-99.222;2023-07-16T03:17:46;24.60;69.90
12413;DHT22;13877;18.896;-99.222;2023-07-16T03:20:12;24.60;70.50
12413;DHT22;13877;18.896;-99.222;2023-07-16T03:22:39;24.50;70.90
12413;DHT22;13877;18.896;-99.222;2023-07-16T03:25:06;24.50;71.30
12413;DHT22;13877;18.896;-99.222;2023-07-16T03:27:33;24.50;71.80
12413;DHT22;13877;18.896;-99.222;2023-07-16T03:30:01;24.60;72.30
12413;DHT22;13877;18.896;-99.222;2023-07-16T03:32:27;24.60;72.60
12413;DHT22;13877;18.896;-99.222;2023-07-16T03:34:54;24.60;73.30
12413;DHT22;13877;18.896;-99.222;2023-07-16T03:37:20;24.60;74.00
12413;DHT22;13877;18.896;-99.222;2023-07-16T03:39:48;24.50;74.50
12413;DHT22;13877;18.896;-99.222;2023-07-16T03:42:14;24.50;75.30
12413;DHT22;13877;18.896;-99.222;2023-07-16T03:44:41;24.40;75.10
12413;DHT22;13877;18.896;-99.222;2023-07-16T03:47:07;24.30;74.10
12413;DHT22;13877;18.896;-99.222;2023-07-16T03:49:34;24.30;73.80
12413;DHT22;13877;18.896;-99.222;2023-07-16T03:52:01;24.30;73.70
12413;DHT22;13877;18.896;-99.222;2023-07-16T03:54:27;24.30;73.30
12413;DHT22;13877;18.896;-99.222;2023-07-16T03:56:54;24.20;73.50
12413;DHT22;13877;18.896;-99.222;2023-07-16T03:59:20;24.20;73.60
12413;DHT22;13877;18.896;-99.222;2023-07-16T04:01:47;24.20;73.60
12413;DHT22;13877;18.896;-99.222;2023-07-16T04:04:13;24.20;73.40
12413;DHT22;13877;18.896;-99.222;2023-07-16T04:06:40;24.30;73.20
12413;DHT22;13877;18.896;-99.222;2023-07-16T04:09:06;24.20;73.60
12413;DHT22;13877;18.896;-99.222;2023-07-16T04:11:33;24.20;73.40
12413;DHT22;13877;18.896;-99.222;2023-07-16T04:13:59;24.20;73.60
12413;DHT22;13877;18.896;-99.222;2023-07-16T04:16:25;24.20;72.70
12413;DHT22;13877;18.896;-99.222;2023-07-16T04:18:52;24.30;72.40
12413;DHT22;13877;18.896;-99.222;2023-07-16T04:21:18;24.30;72.20
12413;DHT22;13877;18.896;-99.222;2023-07-16T04:23:44;24.20;71.90
12413;DHT22;13877;18.896;-99.222;2023-07-16T04:26:11;24.20;72.10
12413;DHT22;13877;18.896;-99.222;2023-07-16T04:28:37;24.20;70.60
12413;DHT22;13877;18.896;-99.222;2023-07-16T04:31:05;24.00;71.10
12413;DHT22;13877;18.896;-99.222;2023-07-16T04:33:31;23.80;72.20
12413;DHT22;13877;18.896;-99.222;2023-07-16T04:35:58;23.70;72.30
12413;DHT22;13877;18.896;-99.222;2023-07-16T04:38:24;23.90;71.50
12413;DHT22;13877;18.896;-99.222;2023-07-16T04:40:52;23.80;72.30
12413;DHT22;13877;18.896;-99.222;2023-07-16T04:43:18;23.60;71.40
12413;DHT22;13877;18.896;-99.222;2023-07-16T04:45:45;23.50;71.10
12413;DHT22;13877;18.896;-99.222;2023-07-16T04:48:12;23.50;71.50
12413;DHT22;13877;18.896;-99.222;2023-07-16T04:50:39;23.40;71.60
12413;DHT22;13877;18.896;-99.222;2023-07-16T04:53:05;22.90;73.70
12413;DHT22;13877;18.896;-99.222;2023-07-16T04:55:36;22.70;73.90
12413;DHT22;13877;18.896;-99.222;2023-07-16T04:58:03;22.50;74.10
12413;DHT22;13877;18.896;-99.222;2023-07-16T05:00:29;22.30;74.80
12413;DHT22;13877;18.896;-99.222;2023-07-16T05:02:57;22.10;75.40
12413;DHT22;13877;18.896;-99.222;2023-07-16T05:05:23;21.90;75.50
12413;DHT22;13877;18.896;-99.222;2023-07-16T05:07:50;21.90;76.60
12413;DHT22;13877;18.896;-99.222;2023-07-16T05:10:16;21.90;75.60
12413;DHT22;13877;18.896;-99.222;2023-07-16T05:12:42;22.20;74.30
12413;DHT22;13877;18.896;-99.222;2023-07-16T05:15:09;22.50;73.50
12413;DHT22;13877;18.896;-99.222;2023-07-16T05:17:35;22.80;73.00
12413;DHT22;13877;18.896;-99.222;2023-07-16T05:20:02;22.90;72.90
12413;DHT22;13877;18.896;-99.222;2023-07-16T05:22:30;23.00;72.20
12413;DHT22;13877;18.896;-99.222;2023-07-16T05:24:56;23.10;70.90
12413;DHT22;13877;18.896;-99.222;2023-07-16T05:27:23;23.10;70.00
12413;DHT22;13877;18.896;-99.222;2023-07-16T05:29:49;23.00;70.60
12413;DHT22;13877;18.896;-99.222;2023-07-16T05:32:15;22.70;71.30
12413;DHT22;13877;18.896;-99.222;2023-07-16T05:34:42;22.40;71.70
12413;DHT22;13877;18.896;-99.222;2023-07-16T05:37:08;22.60;72.70
12413;DHT22;13877;18.896;-99.222;2023-07-16T05:39:34;22.50;70.50
12413;DHT22;13877;18.896;-99.222;2023-07-16T05:42:01;22.50;70.70
12413;DHT22;13877;18.896;-99.222;2023-07-16T05:44:28;22.50;71.80
12413;DHT22;13877;18.896;-99.222;2023-07-16T05:46:56;22.60;71.90
12413;DHT22;13877;18.896;-99.222;2023-07-16T05:49:23;22.60;72.40
12413;DHT22;13877;18.896;-99.222;2023-07-16T05:51:50;22.40;71.90
12413;DHT22;13877;18.896;-99.222;2023-07-16T05:54:16;22.30;72.90
12413;DHT22;13877;18.896;-99.222;2023-07-16T05:56:42;22.20;73.40
12413;DHT22;13877;18.896;-99.222;2023-07-16T05:59:09;22.00;72.90
12413;DHT22;13877;18.896;-99.222;2023-07-16T06:01:35;21.80;73.10
12413;DHT22;13877;18.896;-99.222;2023-07-16T06:04:05;21.70;73.10
12413;DHT22;13877;18.896;-99.222;2023-07-16T06:06:31;21.70;76.30
12413;DHT22;13877;18.896;-99.222;2023-07-16T06:09:01;21.60;74.20
12413;DHT22;13877;18.896;-99.222;2023-07-16T06:11:28;21.70;73.40
12413;DHT22;13877;18.896;-99.222;2023-07-16T06:13:54;21.70;71.90
12413;DHT22;13877;18.896;-99.222;2023-07-16T06:16:21;21.70;72.20
12413;DHT22;13877;18.896;-99.222;2023-07-16T06:18:47;21.70;69.30
12413;DHT22;13877;18.896;-99.222;2023-07-16T06:21:13;21.80;68.50
12413;DHT22;13877;18.896;-99.222;2023-07-16T06:23:40;21.80;69.20
12413;DHT22;13877;18.896;-99.222;2023-07-16T06:26:06;21.80;66.70
12413;DHT22;13877;18.896;-99.222;2023-07-16T06:28:33;21.80;67.70
12413;DHT22;13877;18.896;-99.222;2023-07-16T06:30:59;21.60;68.30
12413;DHT22;13877;18.896;-99.222;2023-07-16T06:33:25;21.50;66.70
12413;DHT22;13877;18.896;-99.222;2023-07-16T06:35:53;21.40;66.90
12413;DHT22;13877;18.896;-99.222;2023-07-16T06:38:19;21.30;66.80
12413;DHT22;13877;18.896;-99.222;2023-07-16T06:40:46;21.20;67.90
12413;DHT22;13877;18.896;-99.222;2023-07-16T06:43:13;21.10;66.30
12413;DHT22;13877;18.896;-99.222;2023-07-16T06:45:40;21.20;66.00
12413;DHT22;13877;18.896;-99.222;2023-07-16T06:48:06;21.20;65.60
12413;DHT22;13877;18.896;-99.222;2023-07-16T06:50:32;21.20;64.80
12413;DHT22;13877;18.896;-99.222;2023-07-16T06:52:59;21.30;64.90
12413;DHT22;13877;18.896;-99.222;2023-07-16T06:55:25;21.30;64.40
12413;DHT22;13877;18.896;-99.222;2023-07-16T06:57:52;21.20;63.50
12413;DHT22;13877;18.896;-99.222;2023-07-16T07:00:18;21.30;63.00
12413;DHT22;13877;18.896;-99.222;2023-07-16T07:02:44;21.40;63.30
12413;DHT22;13877;18.896;-99.222;2023-07-16T07:05:11;21.40;63.90
12413;DHT22;13877;18.896;-99.222;2023-07-16T07:07:37;21.30;63.50
12413;DHT22;13877;18.896;-99.222;2023-07-16T07:10:04;21.20;63.30
12413;DHT22;13877;18.896;-99.222;2023-07-16T07:12:30;21.20;62.80
12413;DHT22;13877;18.896;-99.222;2023-07-16T07:15:05;21.10;62.80
12413;DHT22;13877;18.896;-99.222;2023-07-16T07:17:31;20.90;64.10
12413;DHT22;13877;18.896;-99.222;2023-07-16T07:19:57;20.90;63.60
12413;DHT22;13877;18.896;-99.222;2023-07-16T07:22:24;21.00;62.80
12413;DHT22;13877;18.896;-99.222;2023-07-16T07:24:50;21.00;64.00
12413;DHT22;13877;18.896;-99.222;2023-07-16T07:27:17;21.10;62.10
12413;DHT22;13877;18.896;-99.222;2023-07-16T07:29:43;21.20;62.10
12413;DHT22;13877;18.896;-99.222;2023-07-16T07:32:10;21.20;62.70
12413;DHT22;13877;18.896;-99.222;2023-07-16T07:34:36;21.20;61.90
12413;DHT22;13877;18.896;-99.222;2023-07-16T07:37:04;21.30;61.80
12413;DHT22;13877;18.896;-99.222;2023-07-16T07:39:31;21.40;61.70
12413;DHT22;13877;18.896;-99.222;2023-07-16T07:41:57;21.40;62.10
12413;DHT22;13877;18.896;-99.222;2023-07-16T07:44:23;21.50;61.50
12413;DHT22;13877;18.896;-99.222;2023-07-16T07:46:50;21.50;62.50
12413;DHT22;13877;18.896;-99.222;2023-07-16T07:49:19;21.50;61.90
12413;DHT22;13877;18.896;-99.222;2023-07-16T07:51:45;21.50;61.80
12413;DHT22;13877;18.896;-99.222;2023-07-16T07:54:15;21.50;61.80
12413;DHT22;13877;18.896;-99.222;2023-07-16T07:56:42;21.30;62.00
12413;DHT22;13877;18.896;-99.222;2023-07-16T07:59:08;21.30;62.10
12413;DHT22;13877;18.896;-99.222;2023-07-16T08:01:34;21.30;61.50
12413;DHT22;13877;18.896;-99.222;2023-07-16T08:04:01;21.40;61.70
12413;DHT22;13877;18.896;-99.222;2023-07-16T08:06:28;21.40;61.60
12413;DHT22;13877;18.896;-99.222;2023-07-16T08:08:54;21.40;61.70
12413;DHT22;13877;18.896;-99.222;2023-07-16T08:11:21;21.40;62.30
12413;DHT22;13877;18.896;-99.222;2023-07-16T08:13:47;21.50;62.50
12413;DHT22;13877;18.896;-99.222;2023-07-16T08:16:15;21.40;62.80
12413;DHT22;13877;18.896;-99.222;2023-07-16T08:18:41;21.40;62.40
12413;DHT22;13877;18.896;-99.222;2023-07-16T08:21:07;21.40;62.70
12413;DHT22;13877;18.896;-99.222;2023-07-16T08:23:34;21.40;62.90
12413;DHT22;13877;18.896;-99.222;2023-07-16T08:26:00;21.40;63.00
12413;DHT22;13877;18.896;-99.222;2023-07-16T08:28:26;21.40;63.50
12413;DHT22;13877;18.896;-99.222;2023-07-16T08:30:53;21.30;63.50
12413;DHT22;13877;18.896;-99.222;2023-07-16T08:33:19;21.30;63.80
12413;DHT22;13877;18.896;-99.222;2023-07-16T08:35:45;21.30;64.20
12413;DHT22;13877;18.896;-99.222;2023-07-16T08:38:12;21.30;64.40
12413;DHT22;13877;18.896;-99.222;2023-07-16T08:40:38;21.30;65.10
12413;DHT22;13877;18.896;-99.222;2023-07-16T08:43:05;21.30;65.20
12413;DHT22;13877;18.896;-99.222;2023-07-16T08:45:35;21.20;64.90
12413;DHT22;13877;18.896;-99.222;2023-07-16T08:48:06;21.20;65.60
12413;DHT22;13877;18.896;-99.222;2023-07-16T08:50:33;21.10;66.00
12413;DHT22;13877;18.896;-99.222;2023-07-16T08:53:01;21.10;65.60
12413;DHT22;13877;18.896;-99.222;2023-07-16T08:55:29;21.10;65.80
12413;DHT22;13877;18.896;-99.222;2023-07-16T08:57:57;21.10;66.30
12413;DHT22;13877;18.896;-99.222;2023-07-16T09:00:23;21.20;65.90
12413;DHT22;13877;18.896;-99.222;2023-07-16T09:02:52;21.20;65.60
12413;DHT22;13877;18.896;-99.222;2023-07-16T09:05:21;21.10;66.30
12413;DHT22;13877;18.896;-99.222;2023-07-16T09:07:48;21.10;66.30
12413;DHT22;13877;18.896;-99.222;2023-07-16T09:10:15;21.00;66.80
12413;DHT22;13877;18.896;-99.222;2023-07-16T09:12:45;21.00;66.90
12413;DHT22;13877;18.896;-99.222;2023-07-16T09:15:13;21.00;67.10
12413;DHT22;13877;18.896;-99.222;2023-07-16T09:17:39;20.90;67.50
12413;DHT22;13877;18.896;-99.222;2023-07-16T09:20:06;20.80;67.30
12413;DHT22;13877;18.896;-99.222;2023-07-16T09:22:33;20.80;67.40
12413;DHT22;13877;18.896;-99.222;2023-07-16T09:25:00;20.80;67.60
12413;DHT22;13877;18.896;-99.222;2023-07-16T09:27:30;20.80;67.90
12413;DHT22;13877;18.896;-99.222;2023-07-16T09:29:57;20.80;67.70
12413;DHT22;13877;18.896;-99.222;2023-07-16T09:32:34;20.80;67.90
12413;DHT22;13877;18.896;-99.222;2023-07-16T09:35:05;20.80;68.10
12413;DHT22;13877;18.896;-99.222;2023-07-16T09:37:32;20.70;68.60
12413;DHT22;13877;18.896;-99.222;2023-07-16T09:39:59;20.60;68.60
12413;DHT22;13877;18.896;-99.222;2023-07-16T09:42:25;20.70;69.00
12413;DHT22;13877;18.896;-99.222;2023-07-16T09:44:52;20.60;69.20
12413;DHT22;13877;18.896;-99.222;2023-07-16T09:47:19;20.60;69.20
12413;DHT22;13877;18.896;-99.222;2023-07-16T09:49:46;20.60;69.00
12413;DHT22;13877;18.896;-99.222;2023-07-16T09:52:13;20.60;68.90
12413;DHT22;13877;18.896;-99.222;2023-07-16T09:54:40;20.60;69.20
12413;DHT22;13877;18.896;-99.222;2023-07-16T09:57:07;20.60;69.00
12413;DHT22;13877;18.896;-99.222;2023-07-16T09:59:34;20.60;69.60
12413;DHT22;13877;18.896;-99.222;2023-07-16T10:02:01;20.50;69.70
12413;DHT22;13877;18.896;-99.222;2023-07-16T10:04:36;20.50;70.20
12413;DHT22;13877;18.896;-99.222;2023-07-16T10:07:04;20.40;70.40
12413;DHT22;13877;18.896;-99.222;2023-07-16T10:09:34;20.40;70.40
12413;DHT22;13877;18.896;-99.222;2023-07-16T10:14:43;20.30;70.80
12413;DHT22;13877;18.896;-99.222;2023-07-16T10:17:16;20.30;70.60
12413;DHT22;13877;18.896;-99.222;2023-07-16T10:22:37;20.20;71.10
12413;DHT22;13877;18.896;-99.222;2023-07-16T10:25:07;20.30;71.30
12413;DHT22;13877;18.896;-99.222;2023-07-16T10:27:34;20.30;70.90
12413;DHT22;13877;18.896;-99.222;2023-07-16T10:30:00;20.30;70.90
12413;DHT22;13877;18.896;-99.222;2023-07-16T10:32:31;20.20;71.40
12413;DHT22;13877;18.896;-99.222;2023-07-16T10:34:57;20.10;71.20
12413;DHT22;13877;18.896;-99.222;2023-07-16T10:37:24;20.10;71.70
12413;DHT22;13877;18.896;-99.222;2023-07-16T10:39:52;20.10;71.90
12413;DHT22;13877;18.896;-99.222;2023-07-16T10:42:20;20.00;72.00
12413;DHT22;13877;18.896;-99.222;2023-07-16T10:44:50;20.00;72.30
12413;DHT22;13877;18.896;-99.222;2023-07-16T10:49:47;20.10;71.90
12413;DHT22;13877;18.896;-99.222;2023-07-16T10:52:13;20.10;71.70
12413;DHT22;13877;18.896;-99.222;2023-07-16T10:54:40;20.10;71.90
12413;DHT22;13877;18.896;-99.222;2023-07-16T10:57:06;20.00;72.10
12413;DHT22;13877;18.896;-99.222;2023-07-16T10:59:33;19.90;72.30
12413;DHT22;13877;18.896;-99.222;2023-07-16T11:01:59;19.90;72.70
12413;DHT22;13877;18.896;-99.222;2023-07-16T11:04:26;19.80;72.50
12413;DHT22;13877;18.896;-99.222;2023-07-16T11:06:52;19.90;72.30
12413;DHT22;13877;18.896;-99.222;2023-07-16T11:09:18;19.90;72.10
12413;DHT22;13877;18.896;-99.222;2023-07-16T11:11:45;20.00;72.10
12413;DHT22;13877;18.896;-99.222;2023-07-16T11:14:11;19.90;72.20
12413;DHT22;13877;18.896;-99.222;2023-07-16T11:16:38;19.90;72.80
12413;DHT22;13877;18.896;-99.222;2023-07-16T11:19:05;19.80;73.60
12413;DHT22;13877;18.896;-99.222;2023-07-16T11:21:34;19.70;73.40
12413;DHT22;13877;18.896;-99.222;2023-07-16T11:24:10;19.80;73.40
12413;DHT22;13877;18.896;-99.222;2023-07-16T11:26:38;19.90;72.70
12413;DHT22;13877;18.896;-99.222;2023-07-16T11:29:14;19.90;72.60
12413;DHT22;13877;18.896;-99.222;2023-07-16T11:31:40;19.90;72.50
12413;DHT22;13877;18.896;-99.222;2023-07-16T11:34:13;19.90;72.80
12413;DHT22;13877;18.896;-99.222;2023-07-16T11:36:39;19.70;73.30
12413;DHT22;13877;18.896;-99.222;2023-07-16T11:39:06;19.60;73.70
12413;DHT22;13877;18.896;-99.222;2023-07-16T11:41:32;19.50;73.80
12413;DHT22;13877;18.896;-99.222;2023-07-16T11:43:59;19.40;74.40
12413;DHT22;13877;18.896;-99.222;2023-07-16T11:46:31;19.30;74.50
12413;DHT22;13877;18.896;-99.222;2023-07-16T11:48:59;19.30;75.70
12413;DHT22;13877;18.896;-99.222;2023-07-16T11:51:25;19.20;74.90
12413;DHT22;13877;18.896;-99.222;2023-07-16T11:53:52;19.20;75.50
12413;DHT22;13877;18.896;-99.222;2023-07-16T11:56:18;19.20;75.20
12413;DHT22;13877;18.896;-99.222;2023-07-16T11:58:45;19.30;75.10
12413;DHT22;13877;18.896;-99.222;2023-07-16T12:01:11;19.40;74.70
12413;DHT22;13877;18.896;-99.222;2023-07-16T12:03:39;19.50;74.60
12413;DHT22;13877;18.896;-99.222;2023-07-16T12:06:05;19.50;74.70
12413;DHT22;13877;18.896;-99.222;2023-07-16T12:08:32;19.50;75.10
12413;DHT22;13877;18.896;-99.222;2023-07-16T12:10:58;19.50;74.80
12413;DHT22;13877;18.896;-99.222;2023-07-16T12:13:24;19.60;74.80
12413;DHT22;13877;18.896;-99.222;2023-07-16T12:15:51;19.60;75.00
12413;DHT22;13877;18.896;-99.222;2023-07-16T12:18:17;19.60;74.90
12413;DHT22;13877;18.896;-99.222;2023-07-16T12:20:44;19.60;75.30
12413;DHT22;13877;18.896;-99.222;2023-07-16T12:23:10;19.60;75.10
12413;DHT22;13877;18.896;-99.222;2023-07-16T12:25:37;19.60;75.20
12413;DHT22;13877;18.896;-99.222;2023-07-16T12:28:03;19.70;74.90
12413;DHT22;13877;18.896;-99.222;2023-07-16T12:30:29;19.80;75.00
12413;DHT22;13877;18.896;-99.222;2023-07-16T12:32:56;19.90;74.90
12413;DHT22;13877;18.896;-99.222;2023-07-16T12:35:22;19.90;74.70
12413;DHT22;13877;18.896;-99.222;2023-07-16T12:37:48;20.00;74.90
12413;DHT22;13877;18.896;-99.222;2023-07-16T12:40:15;20.00;74.80
12413;DHT22;13877;18.896;-99.222;2023-07-16T12:42:43;20.10;74.40
12413;DHT22;13877;18.896;-99.222;2023-07-16T12:45:09;20.20;74.60
12413;DHT22;13877;18.896;-99.222;2023-07-16T12:47:36;20.30;74.50
12413;DHT22;13877;18.896;-99.222;2023-07-16T12:50:04;20.40;73.90
12413;DHT22;13877;18.896;-99.222;2023-07-16T12:52:31;20.50;74.10
12413;DHT22;13877;18.896;-99.222;2023-07-16T12:54:57;20.50;73.50
12413;DHT22;13877;18.896;-99.222;2023-07-16T12:57:23;20.60;73.20
12413;DHT22;13877;18.896;-99.222;2023-07-16T12:59:50;20.80;73.60
12413;DHT22;13877;18.896;-99.222;2023-07-16T13:02:16;20.80;73.60
12413;DHT22;13877;18.896;-99.222;2023-07-16T13:04:42;20.90;73.20
12413;DHT22;13877;18.896;-99.222;2023-07-16T13:07:09;21.00;73.10
12413;DHT22;13877;18.896;-99.222;2023-07-16T13:09:35;21.10;72.90
12413;DHT22;13877;18.896;-99.222;2023-07-16T13:12:02;21.20;72.70
12413;DHT22;13877;18.896;-99.222;2023-07-16T13:14:28;21.40;72.70
12413;DHT22;13877;18.896;-99.222;2023-07-16T13:16:55;21.40;72.30
12413;DHT22;13877;18.896;-99.222;2023-07-16T13:19:21;21.50;72.70
12413;DHT22;13877;18.896;-99.222;2023-07-16T13:21:48;21.70;71.90
12413;DHT22;13877;18.896;-99.222;2023-07-16T13:24:14;21.90;72.20
12413;DHT22;13877;18.896;-99.222;2023-07-16T13:26:40;22.00;71.90
12413;DHT22;13877;18.896;-99.222;2023-07-16T13:29:07;22.10;71.00
12413;DHT22;13877;18.896;-99.222;2023-07-16T13:31:33;22.20;71.20
12413;DHT22;13877;18.896;-99.222;2023-07-16T13:34:00;22.30;70.70
12413;DHT22;13877;18.896;-99.222;2023-07-16T13:36:26;22.40;70.80
12413;DHT22;13877;18.896;-99.222;2023-07-16T13:38:52;22.50;71.00
12413;DHT22;13877;18.896;-99.222;2023-07-16T13:41:20;22.70;70.90
12413;DHT22;13877;18.896;-99.222;2023-07-16T13:43:47;22.80;69.90
12413;DHT22;13877;18.896;-99.222;2023-07-16T13:46:13;22.90;70.20
12413;DHT22;13877;18.896;-99.222;2023-07-16T13:48:39;23.10;68.90
12413;DHT22;13877;18.896;-99.222;2023-07-16T13:51:06;23.20;68.80
12413;DHT22;13877;18.896;-99.222;2023-07-16T13:53:33;23.30;68.70
12413;DHT22;13877;18.896;-99.222;2023-07-16T13:55:59;23.40;68.00
12413;DHT22;13877;18.896;-99.222;2023-07-16T13:58:25;23.40;66.50
12413;DHT22;13877;18.896;-99.222;2023-07-16T14:00:52;23.30;66.90
12413;DHT22;13877;18.896;-99.222;2023-07-16T14:03:18;23.40;68.00
12413;DHT22;13877;18.896;-99.222;2023-07-16T14:05:45;23.50;66.90
12413;DHT22;13877;18.896;-99.222;2023-07-16T14:08:11;23.60;68.10
12413;DHT22;13877;18.896;-99.222;2023-07-16T14:10:38;23.60;67.60
12413;DHT22;13877;18.896;-99.222;2023-07-16T14:13:04;23.70;66.80
12413;DHT22;13877;18.896;-99.222;2023-07-16T14:15:30;23.70;67.30
12413;DHT22;13877;18.896;-99.222;2023-07-16T14:17:57;23.80;66.50
12413;DHT22;13877;18.896;-99.222;2023-07-16T14:20:23;23.90;66.60
12413;DHT22;13877;18.896;-99.222;2023-07-16T14:22:50;24.10;66.10
12413;DHT22;13877;18.896;-99.222;2023-07-16T14:25:16;24.20;66.10
12413;DHT22;13877;18.896;-99.222;2023-07-16T14:27:43;24.30;66.20
12413;DHT22;13877;18.896;-99.222;2023-07-16T14:30:10;24.50;65.30
12413;DHT22;13877;18.896;-99.222;2023-07-16T14:32:36;24.40;64.50
12413;DHT22;13877;18.896;-99.222;2023-07-16T14:35:03;24.50;64.50
12413;DHT22;13877;18.896;-99.222;2023-07-16T14:37:29;24.50;65.90
12413;DHT22;13877;18.896;-99.222;2023-07-16T14:39:56;24.40;64.90
12413;DHT22;13877;18.896;-99.222;2023-07-16T14:42:22;24.60;66.70
12413;DHT22;13877;18.896;-99.222;2023-07-16T14:44:49;24.70;66.00
12413;DHT22;13877;18.896;-99.222;2023-07-16T14:47:15;24.80;64.30
12413;DHT22;13877;18.896;-99.222;2023-07-16T14:49:42;24.70;64.40
12413;DHT22;13877;18.896;-99.222;2023-07-16T14:52:09;24.70;63.60
12413;DHT22;13877;18.896;-99.222;2023-07-16T14:54:35;24.70;63.80
12413;DHT22;13877;18.896;-99.222;2023-07-16T14:57:02;25.00;65.80
12413;DHT22;13877;18.896;-99.222;2023-07-16T14:59:29;25.10;64.50
12413;DHT22;13877;18.896;-99.222;2023-07-16T15:01:55;25.30;65.00
12413;DHT22;13877;18.896;-99.222;2023-07-16T15:04:22;25.00;65.80
12413;DHT22;13877;18.896;-99.222;2023-07-16T15:06:48;25.20;63.60
12413;DHT22;13877;18.896;-99.222;2023-07-16T15:09:16;25.20;63.90
12413;DHT22;13877;18.896;-99.222;2023-07-16T15:11:43;25.50;63.60
12413;DHT22;13877;18.896;-99.222;2023-07-16T15:14:09;25.40;63.80
12413;DHT22;13877;18.896;-99.222;2023-07-16T15:16:36;25.40;62.20
12413;DHT22;13877;18.896;-99.222;2023-07-16T15:19:03;25.40;62.70